sensor_id;sensor_type;location;lat;lon;timestamp;temperature;humidity
6377;DHT22;3221;48.858;10.128;2023-03-04T00:02:12;1.40;99.90
6377;DHT22;3221;48.858;10.128;2023-03-04T00:04:39;1.40;99.90
6377;DHT22;3221;48.858;10.128;2023-03-04T00:07:06;1.40;99.90
6377;DHT22;3221;48.858;10.128;2023-03-04T00:09:33;1.40;99.90
6377;DHT22;3221;48.858;10.128;2023-03-04T00:12:00;1.30;99.90
6377;DHT22;3221;48.858;10.128;2023-03-04T00:14:26;1.40;99.90
6377;DHT22;3221;48.858;10.128;2023-03-04T00:16:56;1.30;99.90
6377;DHT22;3221;48.858;10.128;2023-03-04T00:19:22;1.40;99.90
6377;DHT22;3221;48.858;10.128;2023-03-04T00:21:49;1.40;99.90
6377;DHT22;3221;48.858;10.128;2023-03-04T00:24:16;1.30;99.90
6377;DHT22;3221;48.858;10.128;2023-03-04T00:26:43;1.30;99.90
6377;DHT22;3221;48.858;10.128;2023-03-04T00:29:09;1.30;99.90
6377;DHT22;3221;48.858;10.128;2023-03-04T00:31:36;1.30;99.90
6377;DHT22;3221;48.858;10.128;2023-03-04T00:34:03;1.30;99.90
6377;DHT22;3221;48.858;10.128;2023-03-04T00:36:30;1.20;99.90
6377;DHT22;3221;48.858;10.128;2023-03-04T00:38:57;1.20;99.90
6377;DHT22;3221;48.858;10.128;2023-03-04T00:41:23;1.10;99.90
6377;DHT22;3221;48.858;10.128;2023-03-04T00:43:51;1.20;99.90
6377;DHT22;3221;48.858;10.128;2023-03-04T00:46:17;1.10;99.90
6377;DHT22;3221;48.858;10.128;2023-03-04T00:48:44;1.20;99.90
6377;DHT22;3221;48.858;10.128;2023-03-04T00:51:11;1.10;99.90
6377;DHT22;3221;48.858;10.128;2023-03-04T00:53:38;1.00;99.90
6377;DHT22;3221;48.858;10.128;2023-03-04T00:56:05;0.90;99.90
6377;DHT22;3221;48.858;10.128;2023-03-04T00:58:32;0.90;99.90
6377;DHT22;3221;48.858;10.128;2023-03-04T01:00:59;0.90;99.90
6377;DHT22;3221;48.858;10.128;2023-03-04T01:03:25;0.90;99.90
6377;DHT22;3221;48.858;10.128;2023-03-04T01:05:55;0.80;99.90
6377;DHT22;3221;48.858;10.128;2023-03-04T01:08:21;0.80;99.90
6377;DHT22;3221;48.858;10.128;2023-03-04T01:10:48;0.80;99.90
6377;DHT22;3221;48.858;10.128;2023-03-04T01:13:15;0.70;99.90
6377;DHT22;3221;48.858;10.128;2023-03-04T01:15:42;0.70;99.90
6377;DHT22;3221;48.858;10.128;2023-03-04T01:18:09;0.70;99.90
6377;DHT22;3221;48.858;10.128;2023-03-04T01:20:36;0.60;99.90
6377;DHT22;3221;48.858;10.128;2023-03-04T01:23:03;0.70;99.90
6377;DHT22;3221;48.858;10.128;2023-03-04T01:25:30;0.70;99.90
6377;DHT22;3221;48.858;10.128;2023-03-04T01:27:57;0.70;99.90
6377;DHT22;3221;48.858;10.128;2023-03-04T01:30:24;0.70;99.90
6377;DHT22;3221;48.858;10.128;2023-03-04T01:32:51;0.70;99.90
6377;DHT22;3221;48.858;10.128;2023-03-04T01:35:18;0.60;99.90
6377;DHT22;3221;48.858;10.128;2023-03-04T01:37:44;0.60;99.90
6377;DHT22;3221;48.858;10.128;2023-03-04T01:40:12;0.60;99.90
6377;DHT22;3221;48.858;10.128;2023-03-04T01:42:39;0.60;99.90
6377;DHT22;3221;48.858;10.128;2023-03-04T01:45:09;0.50;99.90
6377;DHT22;3221;48.858;10.128;2023-03-04T01:47:37;0.60;99.90
6377;DHT22;3221;48.858;10.128;2023-03-04T01:50:10;0.60;99.90
6377;DHT22;3221;48.858;10.128;2023-03-04T01:52:41;0.50;99.90
6377;DHT22;3221;48.858;10.128;2023-03-04T01:55:19;0.50;99.90
6377;DHT22;3221;48.858;10.128;2023-03-04T01:57:48;0.50;99.90
6377;DHT22;3221;48.858;10.128;2023-03-04T02:00:31;0.40;99.90
6377;DHT22;3221;48.858;10.128;2023-03-04T02:03:01;0.40;99.90
6377;DHT22;3221;48.858;10.128;2023-03-04T02:05:30;0.50;99.90
6377;DHT22;3221;48.858;10.128;2023-03-04T02:07:57;0.50;99.90
6377;DHT22;3221;48.858;10.128;2023-03-04T02:10:25;0.40;99.90
6377;DHT22;3221;48.858;10.128;2023-03-04T02:12:52;0.50;99.90
6377;DHT22;3221;48.858;10.128;2023-03-04T02:15:20;0.50;99.90
6377;DHT22;3221;48.858;10.128;2023-03-04T02:17:47;0.50;99.90
6377;DHT22;3221;48.858;10.128;2023-03-04T02:20:29;0.50;99.90
6377;DHT22;3221;48.858;10.128;2023-03-04T02:23:15;0.50;99.90
6377;DHT22;3221;48.858;10.128;2023-03-04T02:26:13;0.50;99.90
6377;DHT22;3221;48.858;10.128;2023-03-04T02:28:41;0.50;99.90
6377;DHT22;3221;48.858;10.128;2023-03-04T02:31:33;0.50;99.90
6377;DHT22;3221;48.858;10.128;2023-03-04T02:34:06;0.50;99.90
6377;DHT22;3221;48.858;10.128;2023-03-04T02:36:35;0.50;99.90
6377;DHT22;3221;48.858;10.128;2023-03-04T02:41:52;0.50;99.90
6377;DHT22;3221;48.858;10.128;2023-03-04T02:44:24;0.40;99.90
6377;DHT22;3221;48.858;10.128;2023-03-04T02:46:52;0.40;99.90
6377;DHT22;3221;48.858;10.128;2023-03-04T02:49:20;0.40;99.90
6377;DHT22;3221;48.858;10.128;2023-03-04T02:51:53;0.30;99.90
6377;DHT22;3221;48.858;10.128;2023-03-04T02:54:24;0.40;99.90
6377;DHT22;3221;48.858;10.128;2023-03-04T02:56:55;0.30;99.90
6377;DHT22;3221;48.858;10.128;2023-03-04T02:59:23;0.30;99.90
6377;DHT22;3221;48.858;10.128;2023-03-04T03:01:50;0.30;99.90
6377;DHT22;3221;48.858;10.128;2023-03-04T03:04:19;0.30;99.90
6377;DHT22;3221;48.858;10.128;2023-03-04T03:06:48;0.30;99.90
6377;DHT22;3221;48.858;10.128;2023-03-04T03:09:15;0.20;99.90
6377;DHT22;3221;48.858;10.128;2023-03-04T03:11:42;0.20;99.90
6377;DHT22;3221;48.858;10.128;2023-03-04T03:14:09;0.20;99.90
6377;DHT22;3221;48.858;10.128;2023-03-04T03:16:36;0.20;99.90
6377;DHT22;3221;48.858;10.128;2023-03-04T03:19:04;0.10;99.90
6377;DHT22;3221;48.858;10.128;2023-03-04T03:21:32;0.10;99.90
6377;DHT22;3221;48.858;10.128;2023-03-04T03:23:59;0.10;99.90
6377;DHT22;3221;48.858;10.128;2023-03-04T03:26:27;0.00;99.90
6377;DHT22;3221;48.858;10.128;2023-03-04T03:28:54;0.00;99.90
6377;DHT22;3221;48.858;10.128;2023-03-04T03:31:21;0.00;99.90
6377;DHT22;3221;48.858;10.128;2023-03-04T03:33:48;0.00;99.90
6377;DHT22;3221;48.858;10.128;2023-03-04T03:36:15;0.00;99.90
6377;DHT22;3221;48.858;10.128;2023-03-04T03:38:41;0.00;99.90
6377;DHT22;3221;48.858;10.128;2023-03-04T03:41:08;-0.10;99.90
6377;DHT22;3221;48.858;10.128;2023-03-04T03:43:35;0.00;99.90
6377;DHT22;3221;48.858;10.128;2023-03-04T03:46:02;-0.10;99.90
6377;DHT22;3221;48.858;10.128;2023-03-04T03:48:29;-0.10;99.90
6377;DHT22;3221;48.858;10.128;2023-03-04T03:50:56;-0.10;99.90
6377;DHT22;3221;48.858;10.128;2023-03-04T03:53:22;0.00;99.90
6377;DHT22;3221;48.858;10.128;2023-03-04T03:55:49;-0.10;99.90
6377;DHT22;3221;48.858;10.128;2023-03-04T03:58:16;-0.10;99.90
6377;DHT22;3221;48.858;10.128;2023-03-04T04:00:43;-0.20;99.90
6377;DHT22;3221;48.858;10.128;2023-03-04T04:03:13;-0.20;99.90
6377;DHT22;3221;48.858;10.128;2023-03-04T04:05:40;-0.20;99.90
6377;DHT22;3221;48.858;10.128;2023-03-04T04:08:13;-0.20;99.90
6377;DHT22;3221;48.858;10.128;2023-03-04T04:10:40;-0.20;99.90
6377;DHT22;3221;48.858;10.128;2023-03-04T04:13:08;-0.30;99.90
6377;DHT22;3221;48.858;10.128;2023-03-04T04:15:35;-0.30;99.90
6377;DHT22;3221;48.858;10.128;2023-03-04T04:18:05;-0.40;99.90
6377;DHT22;3221;48.858;10.128;2023-03-04T04:20:31;-0.40;99.90
6377;DHT22;3221;48.858;10.128;2023-03-04T04:22:58;-0.40;99.90
6377;DHT22;3221;48.858;10.128;2023-03-04T04:25:25;-0.40;99.90
6377;DHT22;3221;48.858;10.128;2023-03-04T04:27:52;-0.40;99.90
6377;DHT22;3221;48.858;10.128;2023-03-04T04:30:19;-0.40;99.90
6377;DHT22;3221;48.858;10.128;2023-03-04T04:32:46;-0.40;99.90
6377;DHT22;3221;48.858;10.128;2023-03-04T04:35:13;-0.50;99.90
6377;DHT22;3221;48.858;10.128;2023-03-04T04:37:39;-0.50;99.90
6377;DHT22;3221;48.858;10.128;2023-03-04T04:40:07;-0.50;99.90
6377;DHT22;3221;48.858;10.128;2023-03-04T04:42:34;-0.50;99.90
6377;DHT22;3221;48.858;10.128;2023-03-04T04:45:01;-0.60;99.90
6377;DHT22;3221;48.858;10.128;2023-03-04T04:47:28;-0.60;99.90
6377;DHT22;3221;48.858;10.128;2023-03-04T04:49:55;-0.60;99.90
6377;DHT22;3221;48.858;10.128;2023-03-04T04:52:21;-0.60;99.90
6377;DHT22;3221;48.858;10.128;2023-03-04T04:54:48;-0.70;99.90
6377;DHT22;3221;48.858;10.128;2023-03-04T04:57:15;-0.70;99.90
6377;DHT22;3221;48.858;10.128;2023-03-04T04:59:42;-0.70;99.90
6377;DHT22;3221;48.858;10.128;2023-03-04T05:02:08;-0.70;99.90
6377;DHT22;3221;48.858;10.128;2023-03-04T05:04:35;-0.80;99.90
6377;DHT22;3221;48.858;10.128;2023-03-04T05:07:02;-0.80;99.90
6377;DHT22;3221;48.858;10.128;2023-03-04T05:09:29;-0.80;99.90
6377;DHT22;3221;48.858;10.128;2023-03-04T05:11:55;-0.90;99.90
6377;DHT22;3221;48.858;10.128;2023-03-04T05:14:22;-0.90;99.90
6377;DHT22;3221;48.858;10.128;2023-03-04T05:16:49;-0.90;99.90
6377;DHT22;3221;48.858;10.128;2023-03-04T05:19:19;-0.90;99.90
6377;DHT22;3221;48.858;10.128;2023-03-04T05:21:46;-0.90;99.90
6377;DHT22;3221;48.858;10.128;2023-03-04T05:24:13;-0.90;99.90
6377;DHT22;3221;48.858;10.128;2023-03-04T05:26:40;-0.90;99.90
6377;DHT22;3221;48.858;10.128;2023-03-04T05:29:07;-0.90;99.90
6377;DHT22;3221;48.858;10.128;2023-03-04T05:31:33;-0.90;99.90
6377;DHT22;3221;48.858;10.128;2023-03-04T05:34:00;-0.90;99.90
6377;DHT22;3221;48.858;10.128;2023-03-04T05:36:27;-1.00;99.90
6377;DHT22;3221;48.858;10.128;2023-03-04T05:38:54;-0.90;99.90
6377;DHT22;3221;48.858;10.128;2023-03-04T05:41:21;-1.00;99.90
6377;DHT22;3221;48.858;10.128;2023-03-04T05:43:49;-1.00;99.90
6377;DHT22;3221;48.858;10.128;2023-03-04T05:46:17;-1.00;99.90
6377;DHT22;3221;48.858;10.128;2023-03-04T05:48:45;-1.00;99.90
6377;DHT22;3221;48.858;10.128;2023-03-04T05:51:11;-1.00;99.90
6377;DHT22;3221;48.858;10.128;2023-03-04T05:53:40;-1.00;99.90
6377;DHT22;3221;48.858;10.128;2023-03-04T05:56:08;-1.00;99.90
6377;DHT22;3221;48.858;10.128;2023-03-04T05:58:36;-1.00;99.90
6377;DHT22;3221;48.858;10.128;2023-03-04T06:01:04;-0.90;99.90
6377;DHT22;3221;48.858;10.128;2023-03-04T06:03:30;-0.90;99.90
6377;DHT22;3221;48.858;10.128;2023-03-04T06:05:58;-0.90;99.90
6377;DHT22;3221;48.858;10.128;2023-03-04T06:08:25;-1.00;99.90
6377;DHT22;3221;48.858;10.128;2023-03-04T06:10:54;-0.90;99.90
6377;DHT22;3221;48.858;10.128;2023-03-04T06:13:22;-0.90;99.90
6377;DHT22;3221;48.858;10.128;2023-03-04T06:15:54;-0.90;99.90
6377;DHT22;3221;48.858;10.128;2023-03-04T06:18:22;-0.90;99.90
6377;DHT22;3221;48.858;10.128;2023-03-04T06:20:49;-0.90;99.90
6377;DHT22;3221;48.858;10.128;2023-03-04T06:23:16;-0.80;99.90
6377;DHT22;3221;48.858;10.128;2023-03-04T06:25:43;-0.80;99.90
6377;DHT22;3221;48.858;10.128;2023-03-04T06:28:09;-0.70;99.90
6377;DHT22;3221;48.858;10.128;2023-03-04T06:30:36;-0.60;99.90
6377;DHT22;3221;48.858;10.128;2023-03-04T06:33:03;-0.60;99.90
6377;DHT22;3221;48.858;10.128;2023-03-04T06:35:30;-0.70;99.90
6377;DHT22;3221;48.858;10.128;2023-03-04T06:37:56;-0.70;99.90
6377;DHT22;3221;48.858;10.128;2023-03-04T06:40:23;-0.70;99.90
6377;DHT22;3221;48.858;10.128;2023-03-04T06:42:50;-0.60;99.90
6377;DHT22;3221;48.858;10.128;2023-03-04T06:45:17;-0.60;99.90
6377;DHT22;3221;48.858;10.128;2023-03-04T06:47:43;-0.60;99.90
6377;DHT22;3221;48.858;10.128;2023-03-04T06:50:11;-0.60;99.90
6377;DHT22;3221;48.858;10.128;2023-03-04T06:52:39;-0.60;99.90
6377;DHT22;3221;48.858;10.128;2023-03-04T06:55:07;-0.50;99.90
6377;DHT22;3221;48.858;10.128;2023-03-04T06:57:34;-0.50;99.90
6377;DHT22;3221;48.858;10.128;2023-03-04T07:00:01;-0.50;99.90
6377;DHT22;3221;48.858;10.128;2023-03-04T07:02:29;-0.40;99.90
6377;DHT22;3221;48.858;10.128;2023-03-04T07:04:55;-0.40;99.90
6377;DHT22;3221;48.858;10.128;2023-03-04T07:07:22;-0.40;99.90
6377;DHT22;3221;48.858;10.128;2023-03-04T07:09:51;-0.40;99.90
6377;DHT22;3221;48.858;10.128;2023-03-04T07:12:17;-0.60;99.90
6377;DHT22;3221;48.858;10.128;2023-03-04T07:14:44;-0.60;99.90
6377;DHT22;3221;48.858;10.128;2023-03-04T07:17:11;-0.50;99.90
6377;DHT22;3221;48.858;10.128;2023-03-04T07:19:38;-0.50;99.90
6377;DHT22;3221;48.858;10.128;2023-03-04T07:22:04;-0.60;99.90
6377;DHT22;3221;48.858;10.128;2023-03-04T07:24:31;-0.60;99.90
6377;DHT22;3221;48.858;10.128;2023-03-04T07:26:58;-0.70;99.90
6377;DHT22;3221;48.858;10.128;2023-03-04T07:29:25;-0.70;99.90
6377;DHT22;3221;48.858;10.128;2023-03-04T07:31:52;-0.70;99.90
6377;DHT22;3221;48.858;10.128;2023-03-04T07:34:19;-0.60;99.90
6377;DHT22;3221;48.858;10.128;2023-03-04T07:36:46;-0.60;99.90
6377;DHT22;3221;48.858;10.128;2023-03-04T07:39:13;-0.60;99.90
6377;DHT22;3221;48.858;10.128;2023-03-04T07:41:40;-0.60;99.90
6377;DHT22;3221;48.858;10.128;2023-03-04T07:44:09;-0.70;99.90
6377;DHT22;3221;48.858;10.128;2023-03-04T07:46:39;-0.60;99.90
6377;DHT22;3221;48.858;10.128;2023-03-04T07:49:05;-0.50;99.90
6377;DHT22;3221;48.858;10.128;2023-03-04T07:51:32;-0.70;99.90
6377;DHT22;3221;48.858;10.128;2023-03-04T07:54:00;-0.70;99.90
6377;DHT22;3221;48.858;10.128;2023-03-04T07:56:30;-0.80;99.90
6377;DHT22;3221;48.858;10.128;2023-03-04T07:58:57;-0.70;99.90
6377;DHT22;3221;48.858;10.128;2023-03-04T08:01:27;-0.70;99.90
6377;DHT22;3221;48.858;10.128;2023-03-04T08:03:54;-0.70;99.90
6377;DHT22;3221;48.858;10.128;2023-03-04T08:06:22;-0.60;99.90
6377;DHT22;3221;48.858;10.128;2023-03-04T08:08:55;-0.70;99.90
6377;DHT22;3221;48.858;10.128;2023-03-04T08:11:22;-0.70;99.90
6377;DHT22;3221;48.858;10.128;2023-03-04T08:13:49;-0.60;99.90
6377;DHT22;3221;48.858;10.128;2023-03-04T08:16:21;-0.50;99.90
6377;DHT22;3221;48.858;10.128;2023-03-04T08:18:51;-0.50;99.90
6377;DHT22;3221;48.858;10.128;2023-03-04T08:21:19;-0.60;99.90
6377;DHT22;3221;48.858;10.128;2023-03-04T08:23:47;-0.60;99.90
6377;DHT22;3221;48.858;10.128;2023-03-04T08:26:24;-0.60;99.90
6377;DHT22;3221;48.858;10.128;2023-03-04T08:28:52;-0.50;99.90
6377;DHT22;3221;48.858;10.128;2023-03-04T08:31:20;-0.60;99.90
6377;DHT22;3221;48.858;10.128;2023-03-04T08:33:47;-0.50;99.90
6377;DHT22;3221;48.858;10.128;2023-03-04T08:36:14;-0.50;99.90
6377;DHT22;3221;48.858;10.128;2023-03-04T08:38:41;-0.50;99.90
6377;DHT22;3221;48.858;10.128;2023-03-04T08:41:09;-0.40;99.90
6377;DHT22;3221;48.858;10.128;2023-03-04T08:43:36;-0.50;99.90
6377;DHT22;3221;48.858;10.128;2023-03-04T08:46:03;-0.60;99.90
6377;DHT22;3221;48.858;10.128;2023-03-04T08:48:30;-0.60;99.90
6377;DHT22;3221;48.858;10.128;2023-03-04T08:50:57;-0.50;99.90
6377;DHT22;3221;48.858;10.128;2023-03-04T08:53:24;-0.50;99.90
6377;DHT22;3221;48.858;10.128;2023-03-04T08:55:51;-0.50;99.90
6377;DHT22;3221;48.858;10.128;2023-03-04T08:58:18;-0.60;99.90
6377;DHT22;3221;48.858;10.128;2023-03-04T09:00:47;-0.50;99.90
6377;DHT22;3221;48.858;10.128;2023-03-04T09:03:15;-0.50;99.90
6377;DHT22;3221;48.858;10.128;2023-03-04T09:05:43;-0.60;99.90
6377;DHT22;3221;48.858;10.128;2023-03-04T09:08:11;-0.60;99.90
6377;DHT22;3221;48.858;10.128;2023-03-04T09:10:38;-0.60;99.90
6377;DHT22;3221;48.858;10.128;2023-03-04T09:13:05;-0.50;99.90
6377;DHT22;3221;48.858;10.128;2023-03-04T09:15:32;-0.40;99.90
6377;DHT22;3221;48.858;10.128;2023-03-04T09:18:03;-0.40;99.90
6377;DHT22;3221;48.858;10.128;2023-03-04T09:20:31;-0.50;99.90
6377;DHT22;3221;48.858;10.128;2023-03-04T09:22:58;-0.50;99.90
6377;DHT22;3221;48.858;10.128;2023-03-04T09:25:25;-0.40;99.90
6377;DHT22;3221;48.858;10.128;2023-03-04T09:27:51;-0.40;99.90
6377;DHT22;3221;48.858;10.128;2023-03-04T09:30:18;-0.40;99.90
6377;DHT22;3221;48.858;10.128;2023-03-04T09:32:45;-0.30;99.90
6377;DHT22;3221;48.858;10.128;2023-03-04T09:35:12;-0.40;99.90
6377;DHT22;3221;48.858;10.128;2023-03-04T09:37:39;-0.40;99.90
6377;DHT22;3221;48.858;10.128;2023-03-04T09:40:10;-0.30;99.90
6377;DHT22;3221;48.858;10.128;2023-03-04T09:42:54;-0.30;99.90
6377;DHT22;3221;48.858;10.128;2023-03-04T09:45:37;-0.30;99.90
6377;DHT22;3221;48.858;10.128;2023-03-04T09:48:06;-0.30;99.90
6377;DHT22;3221;48.858;10.128;2023-03-04T09:50:38;-0.30;99.90
6377;DHT22;3221;48.858;10.128;2023-03-04T09:55:38;-0.40;99.90
6377;DHT22;3221;48.858;10.128;2023-03-04T09:58:29;-0.30;99.90
6377;DHT22;3221;48.858;10.128;2023-03-04T10:01:16;-0.30;99.90
6377;DHT22;3221;48.858;10.128;2023-03-04T10:03:50;-0.20;99.90
6377;DHT22;3221;48.858;10.128;2023-03-04T10:06:19;-0.10;99.90
6377;DHT22;3221;48.858;10.128;2023-03-04T10:08:54;-0.20;99.90
6377;DHT22;3221;48.858;10.128;2023-03-04T10:11:36;-0.10;99.90
6377;DHT22;3221;48.858;10.128;2023-03-04T10:17:11;-0.20;99.90
6377;DHT22;3221;48.858;10.128;2023-03-04T10:19:50;-0.10;99.90
6377;DHT22;3221;48.858;10.128;2023-03-04T10:22:18;-0.10;99.90
6377;DHT22;3221;48.858;10.128;2023-03-04T10:24:46;-0.10;99.90
6377;DHT22;3221;48.858;10.128;2023-03-04T10:27:16;-0.20;99.90
6377;DHT22;3221;48.858;10.128;2023-03-04T10:29:44;-0.10;99.90
6377;DHT22;3221;48.858;10.128;2023-03-04T10:32:17;-0.20;99.90
6377;DHT22;3221;48.858;10.128;2023-03-04T10:34:45;-0.10;99.90
6377;DHT22;3221;48.858;10.128;2023-03-04T10:37:11;-0.10;99.90
6377;DHT22;3221;48.858;10.128;2023-03-04T10:39:41;-0.10;99.90
6377;DHT22;3221;48.858;10.128;2023-03-04T10:47:17;-0.10;99.90
6377;DHT22;3221;48.858;10.128;2023-03-04T10:49:58;-0.10;99.90
6377;DHT22;3221;48.858;10.128;2023-03-04T10:52:39;-0.10;99.90
6377;DHT22;3221;48.858;10.128;2023-03-04T10:55:16;-0.10;99.90
6377;DHT22;3221;48.858;10.128;2023-03-04T10:57:47;-0.20;99.90
6377;DHT22;3221;48.858;10.128;2023-03-04T11:00:34;-0.20;99.90
6377;DHT22;3221;48.858;10.128;2023-03-04T11:06:15;-0.10;99.90
6377;DHT22;3221;48.858;10.128;2023-03-04T11:08:43;0.00;99.90
6377;DHT22;3221;48.858;10.128;2023-03-04T11:11:38;-0.10;99.90
6377;DHT22;3221;48.858;10.128;2023-03-04T11:14:21;-0.10;99.90
6377;DHT22;3221;48.858;10.128;2023-03-04T11:16:56;-0.10;99.90
6377;DHT22;3221;48.858;10.128;2023-03-04T11:19:28;0.00;99.90
6377;DHT22;3221;48.858;10.128;2023-03-04T11:21:57;0.10;99.90
6377;DHT22;3221;48.858;10.128;2023-03-04T11:24:27;0.10;99.90
6377;DHT22;3221;48.858;10.128;2023-03-04T11:27:09;0.10;99.90
6377;DHT22;3221;48.858;10.128;2023-03-04T11:32:38;0.30;99.90
6377;DHT22;3221;48.858;10.128;2023-03-04T11:35:32;0.30;99.90
6377;DHT22;3221;48.858;10.128;2023-03-04T11:40:46;0.20;99.90
6377;DHT22;3221;48.858;10.128;2023-03-04T11:43:36;0.10;99.90
6377;DHT22;3221;48.858;10.128;2023-03-04T11:46:28;0.20;99.90
6377;DHT22;3221;48.858;10.128;2023-03-04T12:06:11;0.10;99.90
6377;DHT22;3221;48.858;10.128;2023-03-04T12:11:56;0.10;99.90
6377;DHT22;3221;48.858;10.128;2023-03-04T12:14:30;0.20;99.90
6377;DHT22;3221;48.858;10.128;2023-03-04T12:17:23;0.30;99.90
6377;DHT22;3221;48.858;10.128;2023-03-04T12:22:50;0.20;99.90
6377;DHT22;3221;48.858;10.128;2023-03-04T12:42:25;0.20;99.90
6377;DHT22;3221;48.858;10.128;2023-03-04T12:45:18;0.20;99.90
6377;DHT22;3221;48.858;10.128;2023-03-04T12:48:15;0.30;99.90
6377;DHT22;3221;48.858;10.128;2023-03-04T12:53:38;0.20;99.90
6377;DHT22;3221;48.858;10.128;2023-03-04T12:56:22;0.20;99.90
6377;DHT22;3221;48.858;10.128;2023-03-04T12:58:51;0.30;99.90
6377;DHT22;3221;48.858;10.128;2023-03-04T13:01:24;0.30;99.90
6377;DHT22;3221;48.858;10.128;2023-03-04T13:14:05;0.40;99.90
6377;DHT22;3221;48.858;10.128;2023-03-04T13:16:35;0.40;99.90
6377;DHT22;3221;48.858;10.128;2023-03-04T13:25:00;0.40;99.90
6377;DHT22;3221;48.858;10.128;2023-03-04T13:27:48;0.30;99.90
6377;DHT22;3221;48.858;10.128;2023-03-04T13:47:16;0.40;99.90
6377;DHT22;3221;48.858;10.128;2023-03-04T13:49:44;0.40;99.90
6377;DHT22;3221;48.858;10.128;2023-03-04T13:52:37;0.40;99.90
6377;DHT22;3221;48.858;10.128;2023-03-04T13:55:43;0.40;99.90
6377;DHT22;3221;48.858;10.128;2023-03-04T13:58:19;0.40;99.90
6377;DHT22;3221;48.858;10.128;2023-03-04T14:00:51;0.30;99.90
6377;DHT22;3221;48.858;10.128;2023-03-04T14:03:21;0.30;99.90
6377;DHT22;3221;48.858;10.128;2023-03-04T14:06:19;0.30;99.90
6377;DHT22;3221;48.858;10.128;2023-03-04T14:08:47;0.40;99.90
6377;DHT22;3221;48.858;10.128;2023-03-04T14:11:34;0.40;99.90
6377;DHT22;3221;48.858;10.128;2023-03-04T14:14:06;0.50;99.90
6377;DHT22;3221;48.858;10.128;2023-03-04T14:16:39;0.50;99.90
6377;DHT22;3221;48.858;10.128;2023-03-04T14:19:14;0.50;99.90
6377;DHT22;3221;48.858;10.128;2023-03-04T14:21:45;0.50;99.90
6377;DHT22;3221;48.858;10.128;2023-03-04T14:24:15;0.40;99.90
6377;DHT22;3221;48.858;10.128;2023-03-04T14:26:42;0.40;99.90
6377;DHT22;3221;48.858;10.128;2023-03-04T14:29:24;0.30;99.90
6377;DHT22;3221;48.858;10.128;2023-03-04T14:31:53;0.30;99.90
6377;DHT22;3221;48.858;10.128;2023-03-04T14:34:27;0.40;99.90
6377;DHT22;3221;48.858;10.128;2023-03-04T14:36:55;0.40;99.90
6377;DHT22;3221;48.858;10.128;2023-03-04T14:39:25;0.40;99.90
6377;DHT22;3221;48.858;10.128;2023-03-04T14:41:55;0.50;99.90
6377;DHT22;3221;48.858;10.128;2023-03-04T14:44:42;0.40;99.90
6377;DHT22;3221;48.858;10.128;2023-03-04T14:47:32;0.40;99.90
6377;DHT22;3221;48.858;10.128;2023-03-04T14:50:04;0.40;99.90
6377;DHT22;3221;48.858;10.128;2023-03-04T14:57:42;0.40;99.90
6377;DHT22;3221;48.858;10.128;2023-03-04T15:02:54;0.40;99.90
6377;DHT22;3221;48.858;10.128;2023-03-04T15:05:30;0.40;99.90
6377;DHT22;3221;48.858;10.128;2023-03-04T15:08:00;0.40;99.90
6377;DHT22;3221;48.858;10.128;2023-03-04T15:10:33;0.40;99.90
6377;DHT22;3221;48.858;10.128;2023-03-04T15:13:04;0.30;99.90
6377;DHT22;3221;48.858;10.128;2023-03-04T15:15:45;0.30;99.90
6377;DHT22;3221;48.858;10.128;2023-03-04T15:18:24;0.30;99.90
6377;DHT22;3221;48.858;10.128;2023-03-04T15:20:57;0.30;99.90
6377;DHT22;3221;48.858;10.128;2023-03-04T15:23:26;0.20;99.90
6377;DHT22;3221;48.858;10.128;2023-03-04T15:25:55;0.30;99.90
6377;DHT22;3221;48.858;10.128;2023-03-04T15:28:23;0.30;99.90
6377;DHT22;3221;48.858;10.128;2023-03-04T15:30:51;0.30;99.90
6377;DHT22;3221;48.858;10.128;2023-03-04T15:33:18;0.40;99.90
6377;DHT22;3221;48.858;10.128;2023-03-04T15:35:58;0.30;99.90
6377;DHT22;3221;48.858;10.128;2023-03-04T15:38:27;0.20;99.90
6377;DHT22;3221;48.858;10.128;2023-03-04T15:40:54;0.20;99.90
6377;DHT22;3221;48.858;10.128;2023-03-04T15:43:24;0.30;99.90
6377;DHT22;3221;48.858;10.128;2023-03-04T15:45:52;0.40;99.90
6377;DHT22;3221;48.858;10.128;2023-03-04T15:48:19;0.40;99.90
6377;DHT22;3221;48.858;10.128;2023-03-04T15:50:58;0.40;99.90
6377;DHT22;3221;48.858;10.128;2023-03-04T15:53:37;0.30;99.90
6377;DHT22;3221;48.858;10.128;2023-03-04T15:56:12;0.30;99.90
6377;DHT22;3221;48.858;10.128;2023-03-04T15:58:39;0.30;99.90
6377;DHT22;3221;48.858;10.128;2023-03-04T16:01:07;0.40;99.90
6377;DHT22;3221;48.858;10.128;2023-03-04T16:03:35;0.40;99.90
6377;DHT22;3221;48.858;10.128;2023-03-04T16:06:01;0.40;99.90
6377;DHT22;3221;48.858;10.128;2023-03-04T16:08:28;0.40;99.90
6377;DHT22;3221;48.858;10.128;2023-03-04T16:10:55;0.50;99.90
6377;DHT22;3221;48.858;10.128;2023-03-04T16:13:22;0.40;99.90
6377;DHT22;3221;48.858;10.128;2023-03-04T16:15:50;0.40;99.90
6377;DHT22;3221;48.858;10.128;2023-03-04T16:18:17;0.30;99.90
6377;DHT22;3221;48.858;10.128;2023-03-04T16:20:46;0.40;99.90
6377;DHT22;3221;48.858;10.128;2023-03-04T16:23:23;0.40;99.90
6377;DHT22;3221;48.858;10.128;2023-03-04T16:25:53;0.40;99.90
6377;DHT22;3221;48.858;10.128;2023-03-04T16:28:21;0.40;99.90
6377;DHT22;3221;48.858;10.128;2023-03-04T16:30:48;0.30;99.90
6377;DHT22;3221;48.858;10.128;2023-03-04T16:33:15;0.30;99.90
6377;DHT22;3221;48.858;10.128;2023-03-04T16:35:43;0.20;99.90
6377;DHT22;3221;48.858;10.128;2023-03-04T16:38:25;0.30;99.90
6377;DHT22;3221;48.858;10.128;2023-03-04T16:40:54;0.30;99.90
6377;DHT22;3221;48.858;10.128;2023-03-04T16:43:22;0.30;99.90
6377;DHT22;3221;48.858;10.128;2023-03-04T16:45:49;0.30;99.90
6377;DHT22;3221;48.858;10.128;2023-03-04T16:48:16;0.30;99.90
6377;DHT22;3221;48.858;10.128;2023-03-04T16:50:43;0.40;99.90
6377;DHT22;3221;48.858;10.128;2023-03-04T16:53:24;0.30;99.90
6377;DHT22;3221;48.858;10.128;2023-03-04T16:55:52;0.40;99.90
6377;DHT22;3221;48.858;10.128;2023-03-04T16:58:19;0.30;99.90
6377;DHT22;3221;48.858;10.128;2023-03-04T17:00:46;0.20;99.90
6377;DHT22;3221;48.858;10.128;2023-03-04T17:03:13;0.10;99.90
6377;DHT22;3221;48.858;10.128;2023-03-04T17:05:39;0.20;99.90
6377;DHT22;3221;48.858;10.128;2023-03-04T17:08:06;0.20;99.90
6377;DHT22;3221;48.858;10.128;2023-03-04T17:10:33;0.20;99.90
6377;DHT22;3221;48.858;10.128;2023-03-04T17:13:00;0.20;99.90
6377;DHT22;3221;48.858;10.128;2023-03-04T17:15:27;0.20;99.90
6377;DHT22;3221;48.858;10.128;2023-03-04T17:17:53;0.30;99.90
6377;DHT22;3221;48.858;10.128;2023-03-04T17:20:20;0.30;99.90
6377;DHT22;3221;48.858;10.128;2023-03-04T17:22:47;0.20;99.90
6377;DHT22;3221;48.858;10.128;2023-03-04T17:25:14;0.20;99.90
6377;DHT22;3221;48.858;10.128;2023-03-04T17:27:41;0.20;99.90
6377;DHT22;3221;48.858;10.128;2023-03-04T17:30:11;0.30;99.90
6377;DHT22;3221;48.858;10.128;2023-03-04T17:32:39;0.30;99.90
6377;DHT22;3221;48.858;10.128;2023-03-04T17:35:07;0.20;99.90
6377;DHT22;3221;48.858;10.128;2023-03-04T17:37:35;0.20;99.90
6377;DHT22;3221;48.858;10.128;2023-03-04T17:40:03;0.20;99.90
6377;DHT22;3221;48.858;10.128;2023-03-04T17:42:31;0.30;99.90
6377;DHT22;3221;48.858;10.128;2023-03-04T17:44:58;0.20;99.90
6377;DHT22;3221;48.858;10.128;2023-03-04T17:47:25;0.20;99.90
6377;DHT22;3221;48.858;10.128;2023-03-04T17:49:51;0.20;99.90
6377;DHT22;3221;48.858;10.128;2023-03-04T17:52:18;0.20;99.90
6377;DHT22;3221;48.858;10.128;2023-03-04T17:54:45;0.40;99.90
6377;DHT22;3221;48.858;10.128;2023-03-04T17:57:12;0.30;99.90
6377;DHT22;3221;48.858;10.128;2023-03-04T17:59:39;0.20;99.90